Time;durP1;ratioP1;P1;durP2;ratioP2;P2;SDS_P1;SDS_P2;PMS_P1;PMS_P2;Temp;Humidity;BMP_temperature;BMP_pressure;BME280_temperature;BME280_humidity;BME280_pressure;Samples;Min_cycle;Max_cycle;Signal;HPM_P1;HPM_P2
2021/01/10 00:02:10;;;;;;;37.67;20.00;;;;;;;-4.94;93.41;99497.75;5072143;28;20047;-65
2021/01/10 00:04:35;;;;;;;33.92;19.45;;;;;;;-5.02;93.03;99493.94;5072378;28;20042;-65
2021/01/10 00:07:01;;;;;;;34.67;18.67;;;;;;;-5.05;93.19;99493.78;5072243;28;20032;-65
2021/01/10 00:09:26;;;;;;;36.13;19.00;;;;;;;-5.09;93.28;99494.38;5072530;28;20032;-65
2021/01/10 00:11:51;;;;;;;39.03;19.95;;;;;;;-4.99;93.57;99494.09;5072096;28;20024;-65
2021/01/10 00:14:17;;;;;;;39.00;18.83;;;;;;;-5.01;93.15;99498.22;5072296;28;20023;-65
2021/01/10 00:16:42;;;;;;;37.60;19.02;;;;;;;-5.06;93.45;99487.00;5072168;28;20480;-65
2021/01/10 00:19:07;;;;;;;34.90;18.73;;;;;;;-5.03;93.65;99482.13;5072082;28;20059;-65
2021/01/10 00:21:35;;;;;;;37.45;20.40;;;;;;;-5.08;93.56;99488.53;5071909;28;20024;-74
2021/01/10 00:24:00;;;;;;;43.33;20.08;;;;;;;-4.95;94.09;99490.09;5072074;28;20085;-64
2021/01/10 00:26:34;;;;;;;44.42;21.88;;;;;;;-4.74;93.51;99485.31;5072120;28;20032;-65
2021/01/10 00:29:00;;;;;;;40.33;18.92;;;;;;;-4.74;93.04;99490.38;5072040;28;20035;-65
2021/01/10 00:31:30;;;;;;;37.45;18.67;;;;;;;-4.94;92.69;99492.69;5071901;28;20021;-68
2021/01/10 00:33:56;;;;;;;35.10;18.35;;;;;;;-4.97;92.54;99497.59;5072054;28;20032;-72
2021/01/10 00:36:21;;;;;;;37.35;19.30;;;;;;;-4.84;92.84;99494.06;5072197;28;20077;-68
2021/01/10 00:38:46;;;;;;;39.38;18.35;;;;;;;-5.02;92.66;99493.94;5071982;28;20020;-65
2021/01/10 00:41:12;;;;;;;38.40;18.88;;;;;;;-5.08;92.43;99498.66;5071854;28;20442;-65
2021/01/10 00:43:37;;;;;;;33.75;18.90;;;;;;;-5.00;93.59;99499.94;5071801;28;20489;-65
2021/01/10 00:46:02;;;;;;;35.03;18.20;;;;;;;-5.04;92.99;99500.56;5071957;28;20366;-74
2021/01/10 00:48:28;;;;;;;35.47;18.33;;;;;;;-5.10;92.70;99495.19;5071814;28;20050;-74
2021/01/10 00:50:53;;;;;;;39.40;18.42;;;;;;;-5.12;92.99;99501.81;5071686;28;20481;-74
2021/01/10 00:53:18;;;;;;;40.10;18.55;;;;;;;-5.13;92.76;99499.19;5071789;28;20478;-65
2021/01/10 00:55:44;;;;;;;38.13;18.27;;;;;;;-5.12;93.11;99495.91;5071911;28;20021;-65
2021/01/10 00:58:09;;;;;;;37.90;18.77;;;;;;;-5.20;92.87;99508.94;5071629;28;20389;-65
2021/01/10 08:03:03;;;;;;;34.75;18.10;;;;;;;-3.32;87.57;99534.81;4914640;29;20560;-66
2021/01/10 08:05:36;;;;;;;40.03;19.38;;;;;;;-3.32;86.74;99532.25;4916362;29;20072;-66
2021/01/10 08:08:13;;;;;;;28.17;16.60;;;;;;;-3.37;86.63;99532.03;4916279;29;20039;-66
2021/01/10 08:10:55;;;;;;;29.55;15.77;;;;;;;-3.21;86.29;99538.72;4916148;29;20374;-66
2021/01/10 08:13:26;;;;;;;29.73;16.65;;;;;;;-3.12;85.97;99539.16;4916646;29;20028;-70
2021/01/10 08:15:56;;;;;;;27.27;15.13;;;;;;;-2.85;85.28;99530.34;4916074;29;20020;-69
2021/01/10 08:18:22;;;;;;;;;;;;;;;-2.91;86.70;99530.03;4916451;29;20512;-69
2021/01/10 08:20:52;;;;;;;31.85;16.77;;;;;;;-3.12;85.19;99536.63;4915961;29;20336;-69
2021/01/10 08:23:18;;;;;;;33.70;16.98;;;;;;;-3.19;85.65;99537.13;4916106;29;20693;-69
2021/01/10 08:25:45;;;;;;;25.67;14.23;;;;;;;-3.25;85.37;99537.69;4915883;29;20091;-69
2021/01/10 08:28:20;;;;;;;29.38;15.10;;;;;;;-3.02;85.37;99545.53;4915970;29;20032;-69
2021/01/10 08:30:46;;;;;;;31.33;16.65;;;;;;;-3.06;85.27;99547.06;4915909;29;20034;-69
2021/01/10 08:33:21;;;;;;;26.98;15.95;;;;;;;-2.81;84.99;99540.63;4915944;29;20028;-69
2021/01/10 08:35:48;;;;;;;30.98;16.42;;;;;;;-3.00;84.89;99549.88;4915958;29;20024;-70
2021/01/10 08:38:14;;;;;;;29.27;17.35;;;;;;;-2.79;84.51;99550.06;4915784;29;20032;-69
2021/01/10 08:40:39;;;;;;;46.45;22.73;;;;;;;-2.93;84.91;99541.78;4915728;29;20068;-70
2021/01/10 08:43:05;;;;;;;50.42;25.60;;;;;;;-2.71;84.53;99542.78;4915807;29;20126;-69
2021/01/10 08:45:31;;;;;;;30.92;17.83;;;;;;;-2.82;83.95;99543.97;4907535;29;20502;-69
2021/01/10 08:48:04;;;;;;;26.10;16.02;;;;;;;-2.48;83.63;99547.25;4896786;29;20028;-69
2021/01/10 08:50:43;;;;;;;29.83;16.15;;;;;;;-2.28;82.85;99539.69;4896899;29;20111;-69
2021/01/10 08:53:08;;;;;;;32.83;16.65;;;;;;;-2.55;83.49;99540.19;4896884;29;20032;-69
2021/01/10 08:55:40;;;;;;;30.55;17.63;;;;;;;-2.28;82.85;99539.69;4896950;29;20031;-69
2021/01/10 08:58:09;;;;;;;32.40;17.30;;;;;;;-1.98;82.15;99536.00;4896946;29;20035;-69
2021/01/10 09:00:39;;;;;;;30.90;17.13;;;;;;;-2.04;81.47;99533.16;4896713;29;20486;-69
2021/01/10 09:03:18;;;;;;;29.75;16.65;;;;;;;-2.14;82.38;99531.03;4896755;29;20039;-69
2021/01/10 09:05:47;;;;;;;28.30;17.30;;;;;;;-2.28;82.67;99525.31;4896772;29;20505;-70
2021/01/10 09:08:22;;;;;;;27.42;15.75;;;;;;;-2.13;82.22;99536.19;4896799;29;20055;-69
2021/01/10 09:10:55;;;;;;;31.27;18.20;;;;;;;-2.16;82.36;99530.09;4896637;29;20482;-70
2021/01/10 09:13:22;;;;;;;34.25;17.25;;;;;;;-1.62;80.97;99530.75;4896739;29;20037;-70
2021/01/10 09:15:51;;;;;;;28.55;16.42;;;;;;;-1.02;78.41;99526.44;4896738;29;20025;-70
2021/01/10 09:18:20;;;;;;;28.97;17.10;;;;;;;-1.29;78.45;99526.22;4896666;29;20064;-70
2021/01/10 09:21:04;;;;;;;27.20;16.27;;;;;;;-0.11;75.25;99523.13;4896645;29;20443;-70
2021/01/10 09:23:30;;;;;;;26.83;15.00;;;;;;;2.68;65.51;99507.91;4896678;29;20479;-70
2021/01/10 09:25:55;;;;;;;23.30;15.48;;;;;;;4.16;58.68;99501.78;4896618;29;20045;-70
2021/01/10 09:28:22;;;;;;;20.45;13.23;;;;;;;6.24;53.38;99493.03;4899257;29;20028;-70
2021/01/10 09:30:52;;;;;;;18.35;12.90;;;;;;;9.39;45.78;99480.72;4900292;29;20032;-71
2021/01/10 09:33:36;;;;;;;17.70;12.93;;;;;;;9.57;43.63;99490.13;4900221;29;20486;-68
2021/01/10 09:36:03;;;;;;;17.65;12.93;;;;;;;10.58;41.99;99489.72;4900309;29;20103;-69
2021/01/10 09:38:31;;;;;;;18.63;12.02;;;;;;;11.05;40.11;99477.25;4900147;29;20059;-68
2021/01/10 09:41:13;;;;;;;16.45;11.65;;;;;;;11.45;39.30;99491.59;4899821;29;20024;-67
2021/01/10 09:43:42;;;;;;;15.23;11.13;;;;;;;12.18;39.45;99495.09;4900043;29;20027;-70
2021/01/10 09:46:30;;;;;;;14.43;11.18;;;;;;;12.05;36.67;99492.69;4900001;29;20111;-68
2021/01/10 09:48:58;;;;;;;14.18;10.75;;;;;;;13.18;35.94;99491.88;4899835;29;20683;-67
2021/01/10 09:51:23;;;;;;;14.55;11.63;;;;;;;14.53;32.57;99479.72;4892723;29;20060;-67
2021/01/10 09:53:49;;;;;;;13.73;10.82;;;;;;;13.80;34.46;99492.53;4891587;29;20430;-67
2021/01/10 09:56:35;;;;;;;13.45;10.70;;;;;;;13.38;34.12;99500.22;4890675;29;20091;-68
2021/01/10 09:59:00;;;;;;;14.27;10.90;;;;;;;13.58;35.10;99498.13;4891305;29;20044;-68
2021/01/10 10:01:46;;;;;;;13.40;11.18;;;;;;;10.86;38.49;99506.81;4891090;29;20055;-68
2021/01/10 10:04:11;;;;;;;13.48;11.95;;;;;;;10.87;37.60;99507.66;4890276;29;20044;-68
2021/01/10 10:06:52;;;;;;;15.73;12.50;;;;;;;10.93;38.92;99499.84;4891385;29;20033;-68
2021/01/10 10:09:17;;;;;;;18.30;12.30;;;;;;;11.89;37.93;99490.28;4891332;29;20033;-68
2021/01/10 10:11:42;;;;;;;14.32;11.43;;;;;;;13.60;35.14;99490.31;4890264;29;20429;-68
2021/01/10 10:14:08;;;;;;;13.43;11.23;;;;;;;12.83;35.96;99486.38;4891126;29;20040;-68
2021/01/10 10:16:34;;;;;;;12.98;10.80;;;;;;;11.80;36.54;99488.63;4890948;29;20024;-69
2021/01/10 10:18:59;;;;;;;15.15;11.80;;;;;;;10.83;37.89;99491.28;4888354;29;20542;-68
2021/01/10 10:21:24;;;;;;;15.20;10.25;;;;;;;11.30;37.83;99492.59;4890143;29;20040;-68
2021/01/10 10:23:50;;;;;;;13.25;11.05;;;;;;;11.78;37.12;99485.19;4891128;29;20029;-67
2021/01/10 10:26:15;;;;;;;12.85;10.98;;;;;;;13.44;35.27;99479.31;4890812;29;20526;-67
2021/01/10 10:28:40;;;;;;;11.32;9.43;;;;;;;14.13;33.24;99478.81;4891083;29;20035;-68
2021/01/10 10:31:06;;;;;;;11.30;9.60;;;;;;;12.30;35.20;99479.38;4890618;29;20029;-68
2021/01/10 10:33:31;;;;;;;12.32;10.30;;;;;;;13.83;34.54;99469.88;4891455;29;20032;-68
2021/01/10 10:35:57;;;;;;;13.25;11.13;;;;;;;13.78;34.31;99470.84;4890510;29;20024;-67
2021/01/10 10:38:22;;;;;;;12.70;10.27;;;;;;;12.81;34.52;99476.88;4890300;29;20040;-67
2021/01/10 10:40:48;;;;;;;11.82;10.57;;;;;;;13.54;34.78;99465.25;4890197;29;20047;-67
2021/01/10 10:43:13;;;;;;;13.10;11.23;;;;;;;14.39;33.27;99466.94;4890634;29;20032;-68
2021/01/10 10:45:39;;;;;;;13.35;10.52;;;;;;;12.85;34.99;99465.53;4890605;29;20035;-67
2021/01/10 10:48:05;;;;;;;11.02;9.52;;;;;;;13.48;34.51;99461.88;4890500;29;20115;-67
2021/01/10 10:50:30;;;;;;;12.23;9.77;;;;;;;11.66;36.78;99457.63;4890699;29;20039;-67
2021/01/10 10:52:56;;;;;;;14.32;9.98;;;;;;;13.56;34.38;99454.78;4890560;29;20033;-68
2021/01/10 10:55:22;;;;;;;9.18;8.27;;;;;;;12.59;34.76;99461.63;4890570;29;20031;-68
2021/01/10 10:57:47;;;;;;;11.02;8.65;;;;;;;12.95;34.76;99454.09;4890259;29;20032;-67
2021/01/10 11:00:13;;;;;;;11.38;8.75;;;;;;;12.37;35.99;99460.19;4890125;29;20032;-67
2021/01/10 11:02:39;;;;;;;12.32;9.32;;;;;;;11.36;38.08;99461.41;4890457;29;20124;-67
2021/01/10 11:05:05;;;;;;;10.25;8.85;;;;;;;9.67;40.62;99469.44;4890141;29;20048;-67
2021/01/10 11:07:33;;;;;;;11.02;8.95;;;;;;;6.82;46.83;99470.41;4889083;29;20439;-64
2021/01/10 11:09:59;;;;;;;12.32;9.95;;;;;;;5.80;51.45;99482.16;4889716;29;20035;-64
2021/01/10 11:12:24;;;;;;;14.15;9.27;;;;;;;4.28;55.64;99482.38;4889691;29;20036;-64
2021/01/10 11:14:50;;;;;;;13.55;10.18;;;;;;;3.81;58.79;99472.06;4889506;29;20455;-64
2021/01/10 11:17:15;;;;;;;14.02;9.93;;;;;;;3.03;60.57;99474.63;4890097;29;20025;-64
2021/01/10 11:19:41;;;;;;;15.35;10.40;;;;;;;3.33;60.55;99470.19;4889013;29;20040;-64
2021/01/10 11:22:07;;;;;;;15.65;10.30;;;;;;;3.00;60.97;99462.66;4889736;29;20028;-64
2021/01/10 11:24:33;;;;;;;16.58;9.63;;;;;;;3.05;61.69;99457.63;4889566;29;20032;-64
2021/01/10 11:26:59;;;;;;;15.45;9.07;;;;;;;6.26;54.04;99442.41;4889495;29;20050;-64
2021/01/10 11:29:25;;;;;;;13.73;8.07;;;;;;;6.92;48.50;99432.69;4890041;29;20116;-63
2021/01/10 11:31:51;;;;;;;14.93;8.43;;;;;;;9.88;44.08;99416.72;4889503;29;20043;-64
2021/01/10 11:34:17;;;;;;;10.85;8.48;;;;;;;10.23;40.69;99415.66;4889661;29;20131;-63
2021/01/10 11:36:50;;;;;;;13.93;7.50;;;;;;;11.56;39.60;99412.75;4889038;29;20033;-63
2021/01/10 11:39:16;;;;;;;12.88;8.50;;;;;;;12.00;36.73;99400.13;4889488;29;20032;-64
2021/01/10 11:41:50;;;;;;;10.30;7.45;;;;;;;11.54;37.84;99408.44;4889243;29;20028;-64
2021/01/10 11:44:17;;;;;;;10.65;7.88;;;;;;;12.96;34.92;99406.41;4889311;29;20032;-64
2021/01/10 11:46:46;;;;;;;10.73;7.22;;;;;;;13.24;35.16;99398.13;4889176;29;20520;-64
2021/01/10 11:49:11;;;;;;;9.68;7.68;;;;;;;13.15;34.62;99399.16;4889111;29;20024;-64
2021/01/10 11:51:37;;;;;;;10.65;7.55;;;;;;;13.75;33.75;99398.84;4888652;29;20496;-64
2021/01/10 11:54:03;;;;;;;10.07;7.63;;;;;;;12.89;35.12;99407.38;4889109;29;20160;-64
2021/01/10 11:56:29;;;;;;;9.27;7.50;;;;;;;10.65;38.30;99411.09;4889191;29;20037;-63
2021/01/10 11:58:54;;;;;;;10.00;7.53;;;;;;;10.92;39.69;99400.44;4888599;29;20047;-63
2021/01/10 12:01:19;;;;;;;9.65;7.90;;;;;;;9.83;40.63;99408.13;4888435;29;20036;-64
2021/01/10 12:03:47;;;;;;;11.20;7.72;;;;;;;10.65;39.82;99392.94;4889429;29;20155;-67
2021/01/10 12:06:18;;;;;;;13.48;8.15;;;;;;;9.81;40.87;99391.72;4890612;29;20160;-68
2021/01/10 12:08:43;;;;;;;11.02;8.05;;;;;;;8.67;41.74;99400.66;4890765;29;20526;-68
2021/01/10 12:11:14;;;;;;;8.55;7.65;;;;;;;9.64;42.10;99402.16;4890506;29;20176;-68
2021/01/10 12:13:40;;;;;;;11.95;8.32;;;;;;;7.84;45.20;99405.69;4890638;29;20490;-68
2021/01/10 12:16:05;;;;;;;10.70;7.90;;;;;;;9.59;41.62;99390.13;4890748;29;20051;-68
2021/01/10 12:18:30;;;;;;;8.75;6.47;;;;;;;10.33;39.79;99380.22;4890652;29;20039;-68
2021/01/10 12:20:56;;;;;;;9.05;6.13;;;;;;;7.93;43.25;99394.53;4890390;29;20028;-68
2021/01/10 12:23:21;;;;;;;8.00;6.50;;;;;;;7.58;45.03;99395.25;4889938;29;20111;-68
2021/01/10 12:25:46;;;;;;;8.05;6.45;;;;;;;7.66;44.58;99396.16;4890924;29;20044;-68
2021/01/10 12:28:12;;;;;;;9.43;7.25;;;;;;;5.29;50.77;99406.97;4890705;29;20040;-68
2021/01/10 12:30:38;;;;;;;7.32;6.40;;;;;;;3.92;55.72;99410.78;4890463;29;20531;-67
2021/01/10 12:33:03;;;;;;;9.68;7.40;;;;;;;2.83;58.76;99415.31;4890363;29;20152;-67
2021/01/10 12:35:28;;;;;;;9.18;6.18;;;;;;;2.13;60.93;99409.34;4890003;29;20029;-67
2021/01/10 12:37:54;;;;;;;9.77;7.07;;;;;;;1.90;62.44;99416.41;4889822;29;20044;-67
2021/01/10 12:40:19;;;;;;;9.10;6.63;;;;;;;1.71;64.15;99422.72;4890293;29;20032;-67
2021/01/10 12:42:47;;;;;;;14.85;7.90;;;;;;;1.90;64.37;99420.66;4889608;29;20056;-67
2021/01/10 12:45:13;;;;;;;9.73;6.80;;;;;;;1.66;64.60;99419.16;4889369;29;20120;-67
2021/01/10 12:47:45;;;;;;;11.48;7.13;;;;;;;1.42;65.00;99415.91;4890020;29;20033;-67
2021/01/10 12:50:12;;;;;;;8.98;5.97;;;;;;;1.39;64.60;99408.16;4889763;29;20115;-67
2021/01/10 12:52:38;;;;;;;10.32;6.88;;;;;;;1.42;65.62;99413.38;4888801;29;20055;-70
2021/01/10 12:55:05;;;;;;;9.48;6.93;;;;;;;1.48;65.40;99410.97;4889217;29;20409;-69
2021/01/10 12:57:31;;;;;;;10.95;7.05;;;;;;;1.56;65.35;99406.09;4889379;29;20036;-68
2021/01/10 12:59:57;;;;;;;13.20;7.28;;;;;;;1.36;66.51;99410.66;4889851;29;20039;-68
2021/01/10 13:02:22;;;;;;;14.38;9.25;;;;;;;1.00;67.49;99412.13;4892044;29;20047;-70
2021/01/10 13:04:47;;;;;;;15.55;8.60;;;;;;;0.90;69.27;99404.16;4893266;29;20119;-69
2021/01/10 13:07:13;;;;;;;13.95;8.30;;;;;;;1.41;67.53;99411.66;4894045;29;20051;-68
2021/01/10 13:09:38;;;;;;;16.00;8.52;;;;;;;1.96;65.73;99405.47;4894212;29;20024;-68
2021/01/10 13:12:08;;;;;;;11.40;7.68;;;;;;;1.86;66.38;99408.63;4893500;29;20043;-68
2021/01/10 13:14:33;;;;;;;13.10;8.05;;;;;;;2.28;64.42;99404.63;4893330;29;20029;-68
2021/01/10 13:16:59;;;;;;;10.45;7.70;;;;;;;2.59;63.32;99400.25;4893731;29;20558;-68
2021/01/10 13:19:24;;;;;;;11.88;7.15;;;;;;;2.73;61.99;99404.00;4893576;29;20111;-68
2021/01/10 13:21:49;;;;;;;10.80;6.55;;;;;;;2.93;61.86;99401.03;4893186;29;20402;-68
2021/01/10 13:24:15;;;;;;;9.32;6.50;;;;;;;2.69;61.53;99402.19;4893268;29;20037;-68
2021/01/10 13:26:41;;;;;;;8.07;6.18;;;;;;;2.77;61.19;99400.69;4893597;29;20386;-68
2021/01/10 13:29:07;;;;;;;11.35;7.63;;;;;;;2.44;61.54;99405.00;4893880;29;20064;-68
2021/01/10 13:31:38;;;;;;;11.52;7.32;;;;;;;2.00;61.96;99409.84;4893075;29;20126;-68
2021/01/10 13:34:05;;;;;;;9.15;6.90;;;;;;;1.84;62.55;99412.81;4892587;29;20036;-68
2021/01/10 13:36:31;;;;;;;9.40;6.72;;;;;;;2.01;62.82;99416.69;4893604;29;20158;-68
2021/01/10 13:38:57;;;;;;;16.70;7.95;;;;;;;1.88;62.75;99419.75;4893265;29;20037;-68
2021/01/10 13:41:24;;;;;;;10.95;6.65;;;;;;;1.57;63.58;99421.47;4892910;29;20039;-68
2021/01/10 13:43:50;;;;;;;10.07;6.35;;;;;;;1.57;63.52;99411.25;4893330;29;20040;-68
2021/01/10 13:46:24;;;;;;;9.38;6.97;;;;;;;1.70;63.86;99415.88;4893013;29;20032;-68
2021/01/10 13:48:50;;;;;;;13.32;6.97;;;;;;;1.97;62.82;99417.44;4893884;29;20381;-68
2021/01/10 13:51:17;;;;;;;11.57;6.55;;;;;;;1.97;63.10;99405.50;4893174;29;20084;-68
2021/01/10 13:53:44;;;;;;;9.38;6.47;;;;;;;2.11;63.10;99403.31;4893734;29;20035;-68
2021/01/10 13:56:15;;;;;;;9.15;6.10;;;;;;;1.78;63.24;99411.81;4892901;29;20517;-68
2021/01/10 13:58:41;;;;;;;9.05;6.38;;;;;;;1.77;63.56;99407.53;4893107;29;20073;-68
2021/01/10 14:01:06;;;;;;;8.90;6.35;;;;;;;1.30;65.04;99416.41;4892940;29;20036;-68
2021/01/10 14:03:31;;;;;;;10.60;7.20;;;;;;;1.27;65.83;99414.66;4892354;29;20111;-68
2021/01/10 14:05:57;;;;;;;12.45;7.25;;;;;;;1.32;65.42;99412.25;4891893;29;20043;-68
2021/01/10 14:08:22;;;;;;;9.73;7.05;;;;;;;1.61;65.16;99402.84;4892290;29;20124;-69
2021/01/10 14:10:47;;;;;;;14.75;8.23;;;;;;;1.96;64.29;99400.38;4892419;29;20024;-68
2021/01/10 14:13:12;;;;;;;16.45;9.45;;;;;;;1.84;64.56;99400.03;4892232;29;20030;-68
2021/01/10 14:15:38;;;;;;;15.60;8.52;;;;;;;1.84;64.55;99410.25;4892023;29;20736;-68
2021/01/10 14:18:03;;;;;;;15.85;9.13;;;;;;;1.84;64.33;99405.13;4892350;29;20115;-63
2021/01/10 14:20:29;;;;;;;12.65;7.72;;;;;;;2.07;64.04;99393.84;4890872;29;20033;-63
2021/01/10 14:22:54;;;;;;;14.20;7.25;;;;;;;1.98;63.86;99398.72;4891028;29;21447;-64
2021/01/10 14:25:19;;;;;;;16.70;8.05;;;;;;;1.97;63.78;99399.53;4890395;29;20035;-64
2021/01/10 14:27:44;;;;;;;8.48;6.43;;;;;;;2.04;63.10;99398.91;4890733;29;20032;-63
2021/01/10 14:30:10;;;;;;;12.95;8.57;;;;;;;2.16;63.89;99399.19;4890534;29;20086;-63
2021/01/10 14:32:36;;;;;;;12.68;7.65;;;;;;;2.09;63.48;99397.31;4890368;29;20039;-63
2021/01/10 14:35:01;;;;;;;16.58;9.50;;;;;;;1.79;64.02;99403.34;4890940;29;20147;-63
2021/01/10 14:37:26;;;;;;;15.50;8.75;;;;;;;1.54;65.37;99401.78;4890505;29;20036;-64
2021/01/10 14:39:52;;;;;;;13.68;8.00;;;;;;;1.44;65.54;99401.50;4890468;29;20034;-63
2021/01/10 14:42:17;;;;;;;12.98;8.85;;;;;;;1.27;66.11;99404.44;4890409;29;20103;-63
2021/01/10 14:44:42;;;;;;;10.70;7.43;;;;;;;1.08;66.24;99409.81;4890467;29;20032;-67
2021/01/10 14:47:08;;;;;;;15.38;8.90;;;;;;;1.12;66.60;99406.56;4890298;29;20028;-65
2021/01/10 14:49:33;;;;;;;14.30;8.32;;;;;;;1.00;67.31;99412.13;4890449;29;20498;-65
2021/01/10 14:51:58;;;;;;;12.40;8.40;;;;;;;0.94;67.87;99417.06;4890332;29;20028;-66
2021/01/10 14:54:24;;;;;;;13.48;8.50;;;;;;;0.94;68.24;99411.09;4890385;29;20033;-66
2021/01/10 14:56:49;;;;;;;13.73;9.30;;;;;;;0.88;68.27;99418.56;4890879;29;20778;-68
2021/01/10 14:59:15;;;;;;;12.40;8.27;;;;;;;0.86;68.66;99420.19;4890344;29;20163;-64
2021/01/10 15:01:41;;;;;;;11.90;8.93;;;;;;;0.79;69.41;99420.84;4889945;29;20036;-64
2021/01/10 15:04:07;;;;;;;13.35;8.57;;;;;;;0.72;69.44;99423.16;4890053;29;20460;-67
2021/01/10 15:06:35;;;;;;;15.02;9.45;;;;;;;0.66;70.18;99422.97;4890091;29;20036;-65
2021/01/10 15:09:01;;;;;;;14.15;9.48;;;;;;;0.61;70.27;99432.16;4889626;29;20116;-68
2021/01/10 15:11:30;;;;;;;12.50;8.45;;;;;;;0.44;70.39;99433.31;4890209;29;20644;-68
2021/01/10 15:13:56;;;;;;;14.13;9.13;;;;;;;0.38;71.06;99433.09;4889791;29;21278;-64
2021/01/10 15:16:23;;;;;;;13.88;9.45;;;;;;;0.35;70.84;99433.03;4889962;29;20502;-64
2021/01/10 15:18:50;;;;;;;14.98;9.15;;;;;;;0.25;71.18;99432.72;4889784;29;20403;-64
2021/01/10 15:21:16;;;;;;;14.30;8.82;;;;;;;0.11;71.75;99439.03;4889552;29;20040;-65
2021/01/10 15:23:42;;;;;;;19.83;10.52;;;;;;;-0.02;72.01;99436.84;4889791;29;20119;-63
2021/01/10 15:26:07;;;;;;;15.73;9.82;;;;;;;-0.09;72.43;99434.94;4888704;29;20037;-63
2021/01/10 15:28:33;;;;;;;18.05;10.40;;;;;;;-0.15;72.15;99440.66;4889565;29;20028;-64
2021/01/10 15:31:06;;;;;;;20.58;10.90;;;;;;;-0.21;72.95;99449.75;4889278;29;20794;-64
2021/01/10 15:33:32;;;;;;;20.30;11.80;;;;;;;-0.32;73.22;99449.38;4889948;29;20031;-74
2021/01/10 15:35:59;;;;;;;22.50;11.48;;;;;;;-0.39;73.60;99450.81;4889794;29;20029;-64
2021/01/10 15:38:25;;;;;;;25.48;12.38;;;;;;;-0.45;73.71;99455.69;4889550;29;20080;-64
2021/01/10 15:40:50;;;;;;;20.45;12.05;;;;;;;-0.49;74.27;99452.97;4889135;29;20036;-63
2021/01/10 15:43:16;;;;;;;20.10;11.52;;;;;;;-0.56;74.29;99462.09;4889297;29;20028;-65
2021/01/10 15:45:41;;;;;;;15.98;10.93;;;;;;;-0.60;75.32;99467.84;4889492;29;20036;-64
2021/01/10 15:48:07;;;;;;;23.80;12.40;;;;;;;-0.48;75.73;99463.25;4889199;29;20028;-63
2021/01/10 15:50:33;;;;;;;20.58;11.48;;;;;;;-0.34;75.29;99459.53;4889105;29;20028;-63
2021/01/10 15:52:58;;;;;;;17.88;10.32;;;;;;;-0.38;74.77;99465.31;4888682;29;20039;-62
2021/01/10 15:55:24;;;;;;;27.83;12.43;;;;;;;-0.37;79.32;99461.94;4889123;29;20024;-63
2021/01/10 15:57:50;;;;;;;21.33;10.88;;;;;;;-0.20;76.02;99465.06;4889173;29;20112;-62
2021/01/10 16:00:15;;;;;;;17.98;11.38;;;;;;;-0.37;74.33;99469.56;4888923;29;20040;-63
2021/01/10 16:02:41;;;;;;;19.70;12.43;;;;;;;-0.41;75.39;99467.72;4888831;29;20043;-62
2021/01/10 16:05:09;;;;;;;18.92;12.50;;;;;;;-0.47;76.24;99467.50;4888703;29;20513;-63
2021/01/10 16:07:34;;;;;;;18.88;11.82;;;;;;;-0.61;74.49;99473.75;4888938;29;20044;-63
2021/01/10 16:10:00;;;;;;;18.60;10.63;;;;;;;-0.57;76.44;99475.63;4888795;29;20088;-63
2021/01/10 16:12:25;;;;;;;18.98;12.63;;;;;;;-0.76;75.59;99475.72;4888637;29;20494;-62
2021/01/10 16:14:51;;;;;;;22.02;12.55;;;;;;;-0.59;78.59;99477.22;4888602;29;20086;-62
2021/01/10 16:17:16;;;;;;;25.50;14.68;;;;;;;-0.43;77.59;99484.63;4889050;29;20088;-62
2021/01/10 16:19:43;;;;;;;22.00;13.80;;;;;;;-0.48;79.75;99480.16;4888804;29;20033;-62
2021/01/10 16:22:08;;;;;;;26.38;15.10;;;;;;;-0.38;83.42;99478.03;4888618;29;20056;-62
2021/01/10 16:24:33;;;;;;;23.98;15.45;;;;;;;-0.72;76.19;99481.00;4888692;29;20064;-62
2021/01/10 16:26:59;;;;;;;24.58;13.85;;;;;;;-0.66;75.73;99483.78;4888639;29;20036;-63
2021/01/10 16:29:24;;;;;;;23.10;14.02;;;;;;;-0.86;76.39;99488.09;4888756;29;20084;-62
2021/01/10 16:31:50;;;;;;;24.20;13.65;;;;;;;-1.11;75.79;99491.38;4888276;29;20043;-62
2021/01/10 16:34:17;;;;;;;24.77;13.27;;;;;;;-1.20;77.28;99487.59;4888641;29;20040;-63
2021/01/10 16:36:47;;;;;;;22.80;14.18;;;;;;;-1.41;77.05;99490.97;4888116;29;20028;-63
2021/01/10 16:39:14;;;;;;;29.05;16.08;;;;;;;-1.44;77.95;99495.94;4888781;29;20032;-62
2021/01/10 16:41:44;;;;;;;28.73;16.17;;;;;;;-1.48;77.94;99494.06;4888065;29;20033;-63
2021/01/10 16:44:12;;;;;;;28.90;15.98;;;;;;;-1.53;78.30;99499.78;4888663;29;20367;-63
2021/01/10 16:46:39;;;;;;;28.98;15.20;;;;;;;-1.61;78.58;99497.78;4888404;29;20048;-63
2021/01/10 16:49:06;;;;;;;32.00;16.40;;;;;;;-1.65;78.74;99500.13;4888408;29;20490;-62
2021/01/10 16:51:32;;;;;;;33.10;21.02;;;;;;;-1.67;80.16;99509.38;4888313;29;20044;-62
2021/01/10 16:53:59;;;;;;;33.17;18.13;;;;;;;-1.71;80.89;99497.31;4888369;29;20033;-62
2021/01/10 16:56:24;;;;;;;29.90;17.23;;;;;;;-1.87;81.06;99503.44;4888349;29;20027;-63
2021/01/10 16:58:49;;;;;;;28.75;16.25;;;;;;;-1.88;81.82;99500.03;4888166;29;20040;-62
2021/01/10 17:01:15;;;;;;;30.17;18.08;;;;;;;-1.92;81.74;99504.91;4888197;29;20119;-63
2021/01/10 17:03:40;;;;;;;107.40;37.10;;;;;;;-1.97;82.17;99502.19;4888386;29;20073;-63
2021/01/10 17:06:06;;;;;;;100.72;33.28;;;;;;;-2.01;82.35;99500.31;4888246;29;20643;-63
2021/01/10 17:08:31;;;;;;;177.32;50.28;;;;;;;-2.10;82.95;99502.44;4888105;29;20410;-62
2021/01/10 17:10:57;;;;;;;88.72;33.35;;;;;;;-2.08;82.70;99498.28;4886849;29;20040;-62
2021/01/10 17:13:23;;;;;;;59.42;27.45;;;;;;;-2.21;83.03;99501.09;4888294;29;20532;-62
2021/01/10 17:15:48;;;;;;;60.38;29.83;;;;;;;-2.26;83.56;99502.56;4888234;29;20039;-62
2021/01/10 17:18:14;;;;;;;52.50;24.60;;;;;;;-2.35;83.79;99498.81;4888192;29;20039;-63
2021/01/10 17:20:39;;;;;;;66.43;34.15;;;;;;;-2.29;84.14;99497.34;4887784;29;20043;-62
2021/01/10 17:23:04;;;;;;;46.47;25.08;;;;;;;-2.41;84.46;99498.56;4888337;29;20041;-62
2021/01/10 17:25:30;;;;;;;65.50;31.05;;;;;;;-2.44;84.55;99493.31;4887867;29;20061;-62
2021/01/10 17:27:55;;;;;;;39.33;20.75;;;;;;;-2.45;85.05;99501.75;4888155;29;20107;-62
2021/01/10 17:30:21;;;;;;;32.88;18.55;;;;;;;-2.51;85.45;99498.06;4887793;29;20451;-62
2021/01/10 17:32:46;;;;;;;32.28;16.65;;;;;;;-2.57;84.69;99496.09;4887777;29;20035;-62
2021/01/10 17:35:13;;;;;;;32.95;17.85;;;;;;;-2.59;84.73;99500.25;4887728;29;20021;-63
2021/01/10 17:37:40;;;;;;;34.38;19.95;;;;;;;-2.64;84.93;99509.31;4887980;29;20037;-62
2021/01/10 17:40:07;;;;;;;35.33;19.27;;;;;;;-2.65;85.04;99497.44;4887954;29;20037;-63
2021/01/10 17:42:32;;;;;;;33.13;19.00;;;;;;;-2.62;85.80;99502.63;4887896;29;20116;-63
2021/01/10 17:44:58;;;;;;;38.17;20.50;;;;;;;-2.67;85.16;99504.97;4888009;29;20032;-62
2021/01/10 17:47:23;;;;;;;37.35;20.40;;;;;;;-2.71;85.30;99500.53;4888044;29;20502;-63
2021/01/10 17:49:49;;;;;;;41.38;21.25;;;;;;;-2.63;86.46;99501.75;4891232;29;20032;-63
2021/01/10 17:52:14;;;;;;;42.38;21.52;;;;;;;-2.71;85.45;99502.22;4891224;29;20028;-62
2021/01/10 17:54:40;;;;;;;40.97;21.40;;;;;;;-2.67;86.16;99504.09;4891587;29;20177;-62
2021/01/10 17:57:06;;;;;;;34.35;19.80;;;;;;;-2.79;85.46;99503.53;4891344;29;20052;-63
2021/01/10 17:59:31;;;;;;;37.35;19.98;;;;;;;-2.64;86.59;99501.72;4891505;29;20430;-63
2021/01/10 18:01:57;;;;;;;31.85;18.60;;;;;;;-2.67;86.30;99506.63;4891016;29;20040;-62
2021/01/10 18:04:22;;;;;;;35.60;18.92;;;;;;;-2.82;86.14;99503.38;4891363;29;20032;-63
2021/01/10 18:06:47;;;;;;;31.55;17.42;;;;;;;-2.81;86.78;99510.19;4890981;29;20123;-63
2021/01/10 18:09:12;;;;;;;33.05;18.30;;;;;;;-2.91;86.34;99509.75;4890838;29;20043;-62
2021/01/10 18:11:38;;;;;;;35.45;18.27;;;;;;;-2.96;86.69;99508.66;4890973;29;20039;-63
2021/01/10 18:14:03;;;;;;;37.25;20.17;;;;;;;-2.93;86.95;99511.38;4890661;29;20052;-63
2021/01/10 18:16:29;;;;;;;34.83;19.25;;;;;;;-2.94;87.22;99504.56;4889854;29;20066;-63
2021/01/10 18:18:55;;;;;;;32.10;18.80;;;;;;;-2.90;87.90;99511.53;4890726;29;20043;-62
2021/01/10 18:21:20;;;;;;;51.30;25.20;;;;;;;-3.03;86.86;99513.41;4890772;29;20025;-62
2021/01/10 18:23:46;;;;;;;52.92;25.13;;;;;;;-3.11;86.62;99515.56;4890878;29;20033;-62
2021/01/10 18:26:12;;;;;;;51.45;24.42;;;;;;;-3.17;86.90;99520.34;4872950;29;20036;-62